Time;durP1;ratioP1;P1;durP2;ratioP2;P2;SDS_P1;SDS_P2;PMS_P1;PMS_P2;Temp;Humidity;BMP_temperature;BMP_pressure;BME280_temperature;BME280_humidity;BME280_pressure;Samples;Min_cycle;Max_cycle;Signal;HPM_P1;HPM_P2
2023/01/12 00:01:45;;;;;;;2.25;0.70;;;9.50;94.40;;;;;;5136895;28;20027;-75
2023/01/12 00:04:12;;;;;;;1.73;1.20;;;9.40;94.40;;;;;;5118893;28;20059;-74
2023/01/12 00:06:38;;;;;;;5.20;0.90;;;9.50;94.30;;;;;;5118675;28;20031;-74
2023/01/12 00:09:07;;;;;;;3.55;0.82;;;9.60;94.20;;;;;;5136714;28;20035;-74
2023/01/12 00:11:37;;;;;;;3.38;1.15;;;9.60;94.10;;;;;;5136723;28;20490;-74
2023/01/12 00:14:04;;;;;;;3.90;1.20;;;9.50;94.20;;;;;;5135666;28;20020;-75
2023/01/12 00:16:38;;;;;;;5.85;1.00;;;9.60;94.30;;;;;;5118772;28;20061;-74
2023/01/12 00:19:09;;;;;;;3.90;1.52;;;9.50;94.40;;;;;;5135943;28;20032;-75
2023/01/12 00:24:23;;;;;;;4.57;1.02;;;9.50;94.50;;;;;;5136702;28;20038;-74
2023/01/12 00:26:48;;;;;;;2.78;0.88;;;9.50;94.50;;;;;;5135292;28;20035;-74
2023/01/12 00:29:16;;;;;;;6.78;1.25;;;9.60;94.50;;;;;;5118419;28;20083;-75
2023/01/12 00:31:42;;;;;;;5.10;1.23;;;9.60;94.50;;;;;;5135786;28;20056;-75
2023/01/12 00:34:08;;;;;;;4.00;1.27;;;9.60;94.50;;;;;;5134626;28;20072;-74
2023/01/12 00:36:34;;;;;;;5.78;1.10;;;9.60;94.80;;;;;;5135255;28;20027;-75
2023/01/12 00:38:59;;;;;;;5.35;1.83;;;9.60;94.40;;;;;;5135072;28;20056;-74
2023/01/12 00:47:06;;;;;;;5.47;1.35;;;9.60;94.50;;;;;;5135259;28;20043;-75
2023/01/12 00:49:32;;;;;;;5.30;1.23;;;9.70;94.60;;;;;;5136016;28;20020;-75
2023/01/12 00:51:58;;;;;;;3.03;0.80;;;9.70;94.50;;;;;;5117826;28;20028;-74
2023/01/12 00:54:23;;;;;;;6.35;1.23;;;9.70;94.70;;;;;;5118008;28;20015;-74
2023/01/12 00:56:49;;;;;;;4.40;0.90;;;9.60;94.90;;;;;;5117752;28;20054;-75
2023/01/12 00:59:15;;;;;;;5.65;1.45;;;9.60;94.90;;;;;;5117782;28;20015;-75
2023/01/12 01:01:40;;;;;;;3.78;1.20;;;9.70;94.90;;;;;;5135712;28;20035;-74
2023/01/12 01:04:06;;;;;;;5.47;1.65;;;9.60;94.90;;;;;;5134717;28;20055;-75
2023/01/12 01:06:32;;;;;;;2.15;0.95;;;9.60;95.00;;;;;;5117463;28;20042;-74
2023/01/12 01:08:57;;;;;;;6.65;1.20;;;9.60;95.10;;;;;;5100625;28;20038;-75
2023/01/12 01:11:23;;;;;;;4.13;0.95;;;9.60;95.10;;;;;;5134518;28;20016;-75
2023/01/12 01:13:49;;;;;;;5.78;1.60;;;9.60;95.10;;;;;;5134535;28;20157;-74
2023/01/12 01:16:16;;;;;;;3.03;1.20;;;9.60;95.10;;;;;;5117407;28;20035;-75
2023/01/12 01:18:42;;;;;;;2.70;0.98;;;9.70;95.50;;;;;;5117309;28;20058;-74
2023/01/12 01:21:10;;;;;;;3.03;0.82;;;9.60;95.60;;;;;;5135301;28;20035;-74
2023/01/12 01:23:36;;;;;;;4.82;1.05;;;9.60;95.70;;;;;;5135274;28;20023;-74
2023/01/12 01:26:08;;;;;;;7.95;1.33;;;9.60;95.80;;;;;;5134298;28;20035;-75
2023/01/12 01:28:34;;;;;;;3.35;1.30;;;9.60;95.90;;;;;;5134298;28;20016;-75
2023/01/12 01:31:09;;;;;;;6.30;1.30;;;9.60;96.00;;;;;;5100193;28;20024;-74
2023/01/12 01:33:35;;;;;;;7.05;1.73;;;9.60;96.10;;;;;;5134146;28;20102;-75
2023/01/12 01:36:01;;;;;;;6.07;1.27;;;9.60;96.20;;;;;;5117124;28;20039;-74
2023/01/12 01:38:27;;;;;;;3.88;1.00;;;9.60;96.40;;;;;;5134830;28;20097;-74
2023/01/12 01:40:53;;;;;;;7.03;1.58;;;9.50;96.50;;;;;;5134960;28;20027;-74
2023/01/12 01:43:21;;;;;;;11.55;1.70;;;9.50;96.60;;;;;;5133620;28;20027;-74
2023/01/12 01:46:08;;;;;;;7.15;1.40;;;9.50;96.70;;;;;;5133776;28;20401;-74
2023/01/12 01:48:36;;;;;;;8.98;1.80;;;9.50;96.70;;;;;;5134886;28;20120;-74
2023/01/12 01:51:07;;;;;;;3.00;1.27;;;9.60;96.80;;;;;;5134778;27;20031;-74
2023/01/12 01:53:36;;;;;;;6.20;1.33;;;9.50;96.80;;;;;;5133730;28;20027;-74
2023/01/12 01:56:08;;;;;;;3.42;0.70;;;9.50;96.90;;;;;;5133731;28;20065;-74
2023/01/12 01:58:42;;;;;;;5.65;1.30;;;9.60;97.00;;;;;;5134709;28;20049;-74
2023/01/12 02:01:08;;;;;;;5.78;1.48;;;9.50;97.00;;;;;;5134613;28;20031;-74
2023/01/12 02:03:36;;;;;;;5.75;1.17;;;9.50;97.10;;;;;;5134571;28;20024;-74
2023/01/12 02:06:03;;;;;;;8.52;2.13;;;9.50;97.20;;;;;;5116429;28;20032;-74
2023/01/12 02:08:48;;;;;;;12.63;1.45;;;9.50;97.40;;;;;;5133312;28;20028;-74
2023/01/12 02:16:58;;;;;;;8.15;1.50;;;9.50;97.40;;;;;;5134435;28;20096;-74
2023/01/12 02:19:41;;;;;;;3.70;1.30;;;9.40;97.40;;;;;;5134454;28;20039;-73
2023/01/12 02:22:20;;;;;;;7.65;1.40;;;9.40;97.50;;;;;;5134415;28;20035;-74
2023/01/12 02:25:20;;;;;;;9.05;1.48;;;9.50;97.40;;;;;;5133253;28;20023;-74
2023/01/12 02:28:17;;;;;;;7.47;1.25;;;9.50;97.50;;;;;;5133220;28;20028;-74
2023/01/12 02:31:01;;;;;;;6.50;1.40;;;9.50;97.50;;;;;;5134146;28;20063;-74
2023/01/12 02:33:51;;;;;;;3.50;1.13;;;9.40;97.50;;;;;;5134260;28;20038;-74
2023/01/12 02:36:44;;;;;;;2.72;0.85;;;9.50;97.50;;;;;;5134114;28;20023;-74
2023/01/12 02:39:28;;;;;;;;;;;9.50;97.50;;;;;;5134203;28;20458;-74
2023/01/12 02:42:41;;;;;;;6.68;1.77;;;9.50;97.60;;;;;;5134024;28;19914;-74
2023/01/12 02:45:48;;;;;;;3.38;1.20;;;9.40;97.50;;;;;;5134010;28;20023;-74
2023/01/12 02:48:17;;;;;;;6.07;1.70;;;9.40;97.40;;;;;;5133080;28;20043;-74
2023/01/12 02:50:51;;;;;;;10.00;1.63;;;9.40;97.40;;;;;;5133900;28;20020;-74
2023/01/12 02:53:37;;;;;;;11.90;1.77;;;9.40;97.40;;;;;;5132936;28;20019;-74
2023/01/12 02:56:06;;;;;;;7.78;1.50;;;9.40;97.30;;;;;;5121120;28;20032;-74
2023/01/12 02:58:35;;;;;;;5.70;0.98;;;9.50;97.30;;;;;;5137124;28;20015;-74
2023/01/12 03:01:02;;;;;;;3.85;0.93;;;9.50;97.40;;;;;;5137106;28;20032;-74
2023/01/12 03:03:28;;;;;;;11.50;1.50;;;9.50;97.50;;;;;;5120115;28;20024;-74
2023/01/12 03:05:55;;;;;;;10.13;2.08;;;9.50;97.40;;;;;;5137957;28;20020;-74
2023/01/12 03:08:24;;;;;;;4.10;1.20;;;9.50;97.40;;;;;;5136860;28;20027;-74
2023/01/12 03:11:12;;;;;;;9.82;1.73;;;9.50;97.40;;;;;;5120258;28;20023;-74
2023/01/12 03:13:46;;;;;;;4.05;0.82;;;9.50;97.20;;;;;;5138026;28;20058;-74
2023/01/12 03:16:15;;;;;;;6.45;1.23;;;9.50;97.20;;;;;;5137852;28;20030;-74
2023/01/12 03:18:47;;;;;;;5.43;1.65;;;9.50;97.20;;;;;;5136714;28;20019;-74
2023/01/12 03:21:22;;;;;;;;;;;9.60;97.10;;;;;;5138121;28;20038;-74
2023/01/12 03:23:56;;;;;;;5.78;1.90;;;9.60;97.10;;;;;;5136667;28;19911;-74
2023/01/12 03:26:26;;;;;;;3.03;0.80;;;9.50;97.10;;;;;;5137583;28;20020;-74
2023/01/12 03:28:58;;;;;;;4.93;1.63;;;9.50;97.30;;;;;;5136571;28;20031;-74
2023/01/12 03:31:23;;;;;;;5.90;1.47;;;9.50;97.30;;;;;;5136626;28;20015;-74
2023/01/12 03:33:50;;;;;;;7.30;1.15;;;9.60;97.40;;;;;;5136454;28;20016;-74
2023/01/12 03:36:24;;;;;;;5.75;1.33;;;9.50;97.40;;;;;;5136372;28;20043;-74
2023/01/12 03:39:10;;;;;;;7.43;1.65;;;9.50;97.60;;;;;;5137173;28;20036;-74
2023/01/12 03:41:53;;;;;;;6.32;1.42;;;9.50;97.60;;;;;;5137348;28;20028;-74
2023/01/12 03:44:33;;;;;;;10.48;1.67;;;9.50;97.60;;;;;;5136415;28;20028;-74
2023/01/12 03:47:07;;;;;;;2.65;1.13;;;9.50;97.60;;;;;;5137188;28;20115;-74
2023/01/12 03:49:57;;;;;;;6.88;1.90;;;9.50;97.70;;;;;;5137217;28;20080;-73
2023/01/12 03:52:25;;;;;;;5.40;1.30;;;9.50;97.80;;;;;;5136403;28;20012;-74
2023/01/12 03:54:55;;;;;;;6.38;1.15;;;9.50;97.70;;;;;;5136238;28;20019;-74
2023/01/12 03:57:21;;;;;;;4.75;1.50;;;9.50;97.60;;;;;;5136094;28;20041;-74
2023/01/12 03:59:47;;;;;;;8.90;1.38;;;9.50;97.70;;;;;;5135948;28;20028;-74
2023/01/12 04:02:13;;;;;;;7.05;2.22;;;9.50;97.80;;;;;;5137030;28;20053;-73
2023/01/12 04:04:39;;;;;;;13.02;1.60;;;9.50;98.00;;;;;;5136859;28;20032;-73
2023/01/12 04:07:04;;;;;;;7.50;1.38;;;9.50;97.70;;;;;;5136553;28;20032;-73
2023/01/12 04:09:30;;;;;;;3.28;1.13;;;9.50;97.70;;;;;;5136688;28;20043;-74
2023/01/12 04:12:11;;;;;;;11.35;1.40;;;9.50;97.70;;;;;;5135756;28;20038;-73
2023/01/12 04:14:38;;;;;;;6.20;1.17;;;9.50;97.70;;;;;;5136054;28;20027;-73
2023/01/12 04:17:05;;;;;;;2.78;0.75;;;9.50;97.70;;;;;;5135697;28;20038;-73
2023/01/12 04:19:31;;;;;;;6.10;1.20;;;9.50;97.60;;;;;;5136614;28;20027;-73
2023/01/12 04:24:40;;;;;;;5.53;1.13;;;9.50;97.50;;;;;;5136756;28;20046;-73
2023/01/12 04:27:06;;;;;;;6.25;1.17;;;9.50;97.40;;;;;;5118357;28;20031;-73
2023/01/12 04:29:32;;;;;;;7.65;1.33;;;9.50;97.50;;;;;;5101482;28;20023;-73
2023/01/12 04:31:57;;;;;;;9.68;1.20;;;9.50;97.50;;;;;;5118333;28;20027;-73
2023/01/12 04:34:23;;;;;;;2.53;0.75;;;9.50;97.50;;;;;;5136283;28;20028;-73
2023/01/12 04:36:49;;;;;;;3.30;0.93;;;9.50;97.60;;;;;;5136230;28;20038;-73
2023/01/12 04:39:14;;;;;;;4.85;1.10;;;9.50;97.60;;;;;;5135233;28;20101;-73
2023/01/12 04:41:40;;;;;;;6.75;1.02;;;9.50;97.70;;;;;;5135243;28;20028;-73
2023/01/12 04:44:06;;;;;;;1.48;0.60;;;9.50;97.80;;;;;;5135038;28;20030;-73
2023/01/12 04:46:31;;;;;;;9.00;1.23;;;9.50;97.60;;;;;;5117926;28;20020;-73
2023/01/12 04:48:57;;;;;;;4.80;0.95;;;9.40;97.60;;;;;;5136018;28;20031;-73
2023/01/12 04:51:23;;;;;;;5.35;0.90;;;9.40;97.60;;;;;;5117928;28;20028;-73
2023/01/12 04:53:50;;;;;;;4.00;0.70;;;9.40;97.70;;;;;;5135920;28;20028;-73
2023/01/12 04:56:16;;;;;;;2.13;0.90;;;9.50;97.60;;;;;;5135895;28;20020;-73
2023/01/12 04:58:42;;;;;;;2.10;0.57;;;9.50;98.20;;;;;;5134983;28;20027;-73
2023/01/12 05:01:16;;;;;;;3.47;0.45;;;9.40;98.00;;;;;;5134740;28;20026;-73
2023/01/12 05:03:42;;;;;;;3.72;0.82;;;9.40;98.00;;;;;;5135925;28;20083;-73
2023/01/12 05:06:08;;;;;;;3.75;0.40;;;9.40;98.10;;;;;;5117571;28;20051;-73
2023/01/12 05:11:23;;;;;;;7.55;0.98;;;9.40;97.90;;;;;;5135822;28;20027;-73
2023/01/12 05:13:49;;;;;;;3.13;1.10;;;9.50;97.90;;;;;;5135526;28;20031;-74
2023/01/12 05:16:16;;;;;;;1.40;0.38;;;9.50;97.90;;;;;;5134545;28;20031;-74
2023/01/12 05:18:44;;;;;;;3.45;1.02;;;9.60;97.70;;;;;;5134799;28;20035;-74
2023/01/12 05:21:10;;;;;;;1.65;0.73;;;9.50;97.70;;;;;;5134329;28;20031;-73
2023/01/12 05:23:36;;;;;;;5.90;0.68;;;9.60;97.70;;;;;;5135367;28;20024;-73
2023/01/12 05:26:03;;;;;;;2.00;0.90;;;9.50;97.70;;;;;;5135325;28;20053;-73
2023/01/12 05:28:29;;;;;;;3.22;0.60;;;9.50;97.70;;;;;;5135262;28;20027;-74
2023/01/12 05:31:04;;;;;;;5.93;1.23;;;9.60;97.70;;;;;;5134325;28;20020;-73
2023/01/12 05:33:31;;;;;;;4.72;0.80;;;9.60;97.70;;;;;;5135196;28;20024;-74
2023/01/12 05:35:56;;;;;;;3.80;0.98;;;9.60;97.40;;;;;;5134077;28;20028;-74
2023/01/12 05:38:22;;;;;;;4.95;1.02;;;9.60;97.40;;;;;;5100071;28;20027;-74
2023/01/12 05:40:48;;;;;;;5.93;1.67;;;9.60;97.40;;;;;;5134900;28;20111;-74
2023/01/12 05:46:06;;;;;;;3.42;1.15;;;9.70;97.30;;;;;;5135037;28;20042;-73
2023/01/12 05:48:32;;;;;;;3.90;1.20;;;9.60;97.50;;;;;;5133875;28;20028;-73
2023/01/12 05:51:00;;;;;;;1.83;0.70;;;9.60;97.50;;;;;;5133805;28;20095;-73
2023/01/12 05:53:25;;;;;;;3.88;0.70;;;9.60;97.60;;;;;;5100071;28;20087;-73
2023/01/12 05:55:51;;;;;;;4.85;0.98;;;9.60;97.80;;;;;;5133683;28;20030;-74
2023/01/12 05:58:17;;;;;;;3.58;0.98;;;9.60;97.70;;;;;;5133687;28;20038;-74
2023/01/12 06:00:42;;;;;;;1.27;0.80;;;9.60;97.60;;;;;;5133740;28;20091;-74
2023/01/12 06:03:08;;;;;;;4.25;0.80;;;9.60;97.70;;;;;;5116569;28;20031;-73
2023/01/12 06:05:33;;;;;;;3.97;0.75;;;9.60;97.70;;;;;;5133391;28;20031;-73
2023/01/12 06:08:00;;;;;;;1.40;0.60;;;9.60;97.70;;;;;;5134372;28;20031;-73
2023/01/12 06:10:25;;;;;;;3.25;0.80;;;9.60;98.00;;;;;;5134431;28;20008;-73
2023/01/12 06:15:44;;;;;;;5.05;0.65;;;9.60;98.00;;;;;;5110458;28;20023;-73
2023/01/12 06:18:09;;;;;;;1.10;0.50;;;9.60;98.10;;;;;;5134332;28;20435;-73
2023/01/12 06:20:35;;;;;;;2.00;0.55;;;9.50;98.30;;;;;;5134326;28;20100;-73
2023/01/12 06:23:02;;;;;;;4.03;1.50;;;9.50;98.40;;;;;;5133523;28;20039;-73
2023/01/12 06:25:30;;;;;;;5.05;0.70;;;9.50;98.30;;;;;;5134157;28;20072;-73
2023/01/12 06:27:56;;;;;;;3.20;0.77;;;9.60;98.30;;;;;;5134387;28;20027;-73
2023/01/12 06:30:23;;;;;;;6.70;0.70;;;9.50;98.50;;;;;;5133240;28;20028;-73
2023/01/12 06:32:48;;;;;;;4.13;0.80;;;9.60;98.50;;;;;;5134143;28;20054;-74
2023/01/12 06:35:14;;;;;;;2.35;0.98;;;9.60;98.60;;;;;;5116243;28;20024;-73
2023/01/12 06:37:40;;;;;;;4.45;0.70;;;9.60;98.60;;;;;;5133032;28;20106;-74
2023/01/12 06:40:06;;;;;;;4.10;0.70;;;9.60;98.60;;;;;;5132888;28;20044;-74
2023/01/12 06:42:32;;;;;;;0.32;0.20;;;9.60;98.50;;;;;;5134167;28;20031;-74
2023/01/12 06:44:59;;;;;;;3.40;0.55;;;9.60;98.60;;;;;;5133020;28;20088;-73
2023/01/12 06:47:27;;;;;;;4.45;0.65;;;9.70;98.60;;;;;;5133898;28;20094;-73
2023/01/12 06:49:53;;;;;;;0.80;0.50;;;9.70;98.50;;;;;;5133948;28;20020;-74
2023/01/12 06:52:23;;;;;;;2.80;0.50;;;9.70;98.60;;;;;;5133890;28;20057;-73
2023/01/12 06:54:49;;;;;;;0.68;0.55;;;9.70;98.70;;;;;;5133982;28;20020;-73
2023/01/12 06:57:15;;;;;;;0.88;0.28;;;9.80;98.70;;;;;;5133863;28;20023;-74
2023/01/12 06:59:41;;;;;;;2.83;0.30;;;9.80;98.60;;;;;;5133833;28;20095;-74
2023/01/12 07:02:12;;;;;;;1.75;0.43;;;9.80;98.50;;;;;;5133816;28;20062;-74
2023/01/12 07:04:38;;;;;;;1.52;0.28;;;9.80;98.60;;;;;;5133864;28;20035;-73
2023/01/12 07:07:05;;;;;;;1.25;0.73;;;9.80;98.60;;;;;;5098965;28;20031;-74
2023/01/12 07:09:32;;;;;;;4.40;0.70;;;9.90;98.60;;;;;;5132862;28;20027;-74
2023/01/12 07:11:58;;;;;;;1.95;0.50;;;9.90;98.60;;;;;;5132935;28;20023;-73
2023/01/12 07:14:24;;;;;;;5.18;0.95;;;9.90;98.50;;;;;;5132862;28;20088;-73
2023/01/12 07:16:49;;;;;;;1.40;0.30;;;9.90;98.40;;;;;;5115717;28;20112;-73
2023/01/12 07:19:15;;;;;;;2.15;0.40;;;9.90;98.50;;;;;;5115649;28;20104;-74
2023/01/12 07:21:40;;;;;;;1.88;0.65;;;9.90;98.50;;;;;;5132567;28;20036;-74
2023/01/12 07:24:06;;;;;;;4.10;0.70;;;9.90;98.40;;;;;;5133569;28;20057;-74
2023/01/12 07:26:32;;;;;;;1.83;0.38;;;10.00;98.30;;;;;;5115682;28;20035;-74
2023/01/12 07:28:58;;;;;;;1.52;0.38;;;10.00;98.40;;;;;;5132721;28;20026;-74
2023/01/12 07:31:23;;;;;;;3.83;0.50;;;10.00;98.40;;;;;;5132697;28;20081;-74
2023/01/12 07:33:52;;;;;;;1.92;0.50;;;10.00;98.20;;;;;;5115661;28;20036;-74
2023/01/12 07:36:19;;;;;;;2.55;0.40;;;10.00;98.30;;;;;;5132590;28;20020;-74
2023/01/12 07:38:44;;;;;;;3.85;0.70;;;10.00;98.60;;;;;;5133289;28;20028;-74
2023/01/12 07:42:22;;;;;;;2.63;0.80;;;10.10;98.20;;;;;;5133531;28;20074;-74
2023/01/12 07:43:56;;;;;;;0.68;0.30;;;10.10;97.70;;;;;;5122177;28;20051;-74
2023/01/12 07:46:22;;;;;;;1.13;0.45;;;10.10;98.10;;;;;;5137198;28;20024;-74
2023/01/12 07:48:48;;;;;;;2.45;0.63;;;10.20;97.90;;;;;;5137227;28;20028;-74
2023/01/12 07:51:13;;;;;;;2.03;0.32;;;10.20;98.00;;;;;;5136111;28;20107;-74
2023/01/12 07:53:39;;;;;;;4.35;0.93;;;10.20;98.00;;;;;;5137076;28;20534;-74
2023/01/12 07:56:05;;;;;;;1.27;0.40;;;10.20;97.90;;;;;;5136054;28;20028;-74
2023/01/12 07:58:30;;;;;;;2.63;0.45;;;10.20;98.00;;;;;;5119206;28;20035;-74
2023/01/12 08:01:00;;;;;;;0.30;0.28;;;10.20;98.00;;;;;;5137112;28;20032;-73
2023/01/12 08:03:26;;;;;;;3.85;0.73;;;10.20;98.00;;;;;;5135986;28;20521;-74
2023/01/12 08:05:56;;;;;;;4.88;0.63;;;10.20;98.10;;;;;;5136815;28;20024;-74
2023/01/12 08:08:22;;;;;;;1.27;0.40;;;10.20;98.20;;;;;;5136921;28;20024;-73
2023/01/12 08:10:49;;;;;;;1.48;0.30;;;10.20;98.20;;;;;;5135926;28;20501;-74
2023/01/12 08:13:15;;;;;;;1.73;0.57;;;10.20;98.30;;;;;;5136694;28;20020;-74
2023/01/12 08:15:45;;;;;;;0.98;0.50;;;10.20;98.30;;;;;;5136703;28;20067;-74
2023/01/12 08:18:26;;;;;;;0.93;0.47;;;10.20;98.40;;;;;;5136725;28;20039;-73
2023/01/12 08:20:53;;;;;;;1.95;0.60;;;10.20;98.50;;;;;;5136663;27;20022;-74
2023/01/12 08:23:45;;;;;;;1.13;0.70;;;10.20;98.60;;;;;;5118667;28;20035;-73
2023/01/12 08:26:15;;;;;;;1.37;0.93;;;10.20;98.50;;;;;;5127365;28;20040;-74
2023/01/12 08:28:48;;;;;;;1.40;0.70;;;10.20;98.60;;;;;;5135417;28;20027;-73
2023/01/12 08:31:16;;;;;;;2.55;0.90;;;10.30;98.30;;;;;;5136418;28;20024;-74
2023/01/12 08:33:43;;;;;;;2.05;0.57;;;10.30;98.40;;;;;;5135299;28;20047;-74
2023/01/12 08:36:12;;;;;;;0.65;0.40;;;10.30;98.20;;;;;;5136280;28;20062;-74
2023/01/12 08:38:38;;;;;;;2.88;0.77;;;10.30;98.20;;;;;;5135044;28;20019;-75
2023/01/12 08:44:00;;;;;;;0.40;0.30;;;10.30;98.40;;;;;;5136399;28;20541;-74
2023/01/12 08:46:30;;;;;;;3.28;0.70;;;10.40;98.40;;;;;;5136104;28;20027;-74
2023/01/12 08:48:56;;;;;;;2.03;0.40;;;10.40;98.20;;;;;;5135360;28;20016;-74
2023/01/12 08:51:22;;;;;;;0.73;0.45;;;10.40;98.10;;;;;;5134993;28;20030;-74
2023/01/12 08:53:47;;;;;;;0.80;0.40;;;10.40;98.20;;;;;;5133994;28;20054;-74
2023/01/12 08:56:13;;;;;;;1.90;0.80;;;10.40;98.10;;;;;;5101018;28;20023;-74
2023/01/12 08:58:39;;;;;;;1.45;0.40;;;10.40;98.20;;;;;;5117815;28;20027;-74
2023/01/12 09:01:10;;;;;;;0.75;0.43;;;10.40;98.30;;;;;;5134724;28;20019;-74
2023/01/12 09:03:37;;;;;;;1.75;0.60;;;10.50;98.30;;;;;;5134858;28;20031;-74
2023/01/12 09:06:13;;;;;;;2.72;0.75;;;10.50;98.30;;;;;;5134817;28;20024;-74
2023/01/12 09:08:38;;;;;;;1.17;0.47;;;10.50;98.20;;;;;;5135771;28;20087;-74
2023/01/12 09:11:05;;;;;;;0.40;0.38;;;10.50;98.30;;;;;;5135608;28;20065;-74
2023/01/12 09:13:34;;;;;;;1.75;0.30;;;10.50;98.30;;;;;;5135689;28;20046;-74
2023/01/12 09:16:10;;;;;;;1.15;0.60;;;10.50;98.40;;;;;;5134616;28;20031;-74
2023/01/12 09:18:36;;;;;;;0.80;0.63;;;10.50;98.40;;;;;;5135520;28;20065;-74
2023/01/12 09:21:05;;;;;;;0.70;0.45;;;10.50;98.40;;;;;;5134369;28;20064;-74
2023/01/12 09:23:32;;;;;;;0.85;0.40;;;10.60;98.60;;;;;;5135362;28;20447;-74
2023/01/12 09:26:02;;;;;;;0.70;0.52;;;10.60;98.60;;;;;;5117119;28;20024;-73
2023/01/12 09:28:28;;;;;;;1.38;0.57;;;10.60;98.60;;;;;;5135301;28;20027;-74
2023/01/12 09:30:54;;;;;;;3.08;0.52;;;10.60;98.80;;;;;;5134276;28;20482;-74
2023/01/12 09:33:20;;;;;;;2.40;0.70;;;10.60;98.80;;;;;;5135155;28;20020;-74
2023/01/12 09:35:46;;;;;;;1.50;0.60;;;10.60;98.90;;;;;;5135283;28;20023;-74
2023/01/12 09:38:12;;;;;;;2.30;0.40;;;10.60;98.80;;;;;;5135006;28;20042;-74
2023/01/12 09:40:41;;;;;;;0.32;0.30;;;10.70;98.70;;;;;;5133944;28;20051;-74
2023/01/12 09:48:42;;;;;;;0.47;0.32;;;10.70;98.90;;;;;;5134993;28;20031;-74
2023/01/12 09:51:27;;;;;;;0.30;0.30;;;10.60;98.80;;;;;;5134826;28;20027;-74
2023/01/12 09:53:53;;;;;;;2.00;0.82;;;10.70;99.10;;;;;;5134818;28;20098;-73
2023/01/12 09:56:37;;;;;;;4.07;1.50;;;10.70;99.00;;;;;;5133714;28;20028;-74
2023/01/12 09:59:11;;;;;;;2.28;0.50;;;10.70;99.10;;;;;;5134700;28;20027;-74
2023/01/12 10:01:37;;;;;;;2.30;0.70;;;10.70;99.20;;;;;;5134774;28;20054;-74
2023/01/12 10:04:04;;;;;;;0.45;0.40;;;10.60;99.40;;;;;;5134468;28;20027;-74
2023/01/12 10:06:31;;;;;;;0.65;0.35;;;10.70;99.30;;;;;;5133331;28;20035;-74
2023/01/12 10:09:01;;;;;;;1.17;0.68;;;10.70;99.30;;;;;;5133390;28;20136;-74
2023/01/12 10:11:29;;;;;;;1.95;0.45;;;10.70;99.30;;;;;;5134445;28;20027;-74
2023/01/12 10:14:12;;;;;;;0.20;0.20;;;10.70;99.20;;;;;;5134428;28;20019;-74
2023/01/12 10:16:50;;;;;;;1.98;0.50;;;10.70;99.20;;;;;;5133421;28;20087;-74
2023/01/12 10:20:01;;;;;;;0.55;0.40;;;10.80;99.10;;;;;;5134553;28;20475;-74
2023/01/12 10:22:37;;;;;;;0.63;0.30;;;10.70;99.40;;;;;;5133372;28;20028;-74
2023/01/12 10:25:33;;;;;;;1.15;0.38;;;10.70;99.00;;;;;;5134282;28;20023;-74
2023/01/12 10:28:05;;;;;;;1.92;0.90;;;10.80;99.50;;;;;;5133307;28;20038;-74
2023/01/12 10:30:33;;;;;;;1.98;0.40;;;10.70;99.40;;;;;;5134219;28;20031;-73
2023/01/12 10:33:09;;;;;;;3.15;1.05;;;10.70;99.50;;;;;;5134132;28;20027;-74
2023/01/12 10:35:35;;;;;;;1.33;0.38;;;10.70;99.50;;;;;;5133088;28;20038;-74
2023/01/12 10:38:17;;;;;;;0.35;0.20;;;10.70;99.50;;;;;;5133059;28;20024;-74
2023/01/12 10:41:00;;;;;;;0.10;0.10;;;10.70;99.70;;;;;;5133942;28;20495;-74
2023/01/12 10:43:32;;;;;;;3.10;1.50;;;10.70;99.80;;;;;;5134077;28;20030;-74
2023/01/12 10:46:10;;;;;;;2.85;0.50;;;10.80;99.70;;;;;;5133944;28;20027;-74
2023/01/12 10:48:38;;;;;;;1.73;0.55;;;10.80;99.80;;;;;;5132898;28;20047;-74
2023/01/12 10:51:07;;;;;;;0.40;0.22;;;10.80;99.80;;;;;;5132984;28;20046;-74
2023/01/12 10:53:42;;;;;;;0.73;0.52;;;10.80;99.70;;;;;;5133912;28;20071;-74
2023/01/12 10:56:34;;;;;;;1.38;0.88;;;10.80;99.60;;;;;;5134124;28;20031;-74
2023/01/12 10:59:03;;;;;;;3.03;1.83;;;10.80;99.70;;;;;;5097511;28;20063;-74
2023/01/12 11:02:10;;;;;;;0.40;0.38;;;10.90;99.70;;;;;;5133843;28;20035;-74
2023/01/12 11:04:51;;;;;;;1.30;0.80;;;10.80;99.60;;;;;;5134030;28;20054;-74
2023/01/12 11:07:18;;;;;;;0.77;0.50;;;10.80;99.70;;;;;;5133716;28;20027;-74
2023/01/12 11:09:44;;;;;;;1.30;0.82;;;10.90;99.60;;;;;;5133723;28;20027;-74
2023/01/12 11:12:42;;;;;;;0.30;0.28;;;10.90;99.70;;;;;;5133766;28;20030;-74
2023/01/12 11:15:10;;;;;;;1.15;0.60;;;10.90;99.70;;;;;;5129659;28;20036;-74
2023/01/12 11:17:55;;;;;;;2.58;0.73;;;10.90;99.50;;;;;;5136151;28;20041;-74
2023/01/12 11:20:33;;;;;;;0.47;0.47;;;11.00;99.50;;;;;;5137768;28;20024;-74
2023/01/12 11:23:02;;;;;;;0.63;0.50;;;11.00;99.40;;;;;;5136710;28;20073;-74
2023/01/12 11:25:50;;;;;;;1.25;0.30;;;10.90;99.50;;;;;;5137673;28;20031;-74
2023/01/12 11:28:29;;;;;;;1.25;0.43;;;10.90;99.60;;;;;;5136793;28;20018;-74
2023/01/12 11:31:00;;;;;;;0.55;0.30;;;11.00;99.50;;;;;;5137613;28;20024;-74
2023/01/12 11:33:32;;;;;;;1.13;0.63;;;11.00;99.60;;;;;;5137580;27;20022;-75
2023/01/12 11:36:00;;;;;;;0.88;0.60;;;10.90;99.40;;;;;;5137663;28;20028;-74
2023/01/12 11:38:39;;;;;;;1.50;0.90;;;11.00;99.40;;;;;;5137389;28;20030;-74
2023/01/12 11:41:12;;;;;;;1.05;0.63;;;11.00;99.50;;;;;;5137549;28;20074;-74
2023/01/12 11:43:48;;;;;;;;;;;11.00;99.50;;;;;;5137780;28;20022;-74
2023/01/12 11:46:21;;;;;;;0.50;0.40;;;11.00;99.30;;;;;;5137244;28;19975;-74
2023/01/12 11:49:11;;;;;;;0.22;0.22;;;10.90;99.60;;;;;;5137298;28;20016;-74
2023/01/12 11:51:38;;;;;;;0.98;0.35;;;11.00;99.80;;;;;;5136227;28;20034;-74
2023/01/12 11:54:06;;;;;;;0.40;0.40;;;11.00;99.60;;;;;;5136093;28;20091;-74
2023/01/12 11:56:56;;;;;;;1.00;0.50;;;11.00;99.70;;;;;;5137052;27;20053;-74
2023/01/12 11:59:43;;;;;;;0.47;0.20;;;11.00;99.80;;;;;;5136054;28;20103;-75
2023/01/12 12:02:27;;;;;;;0.77;0.47;;;11.00;99.80;;;;;;5135920;28;20028;-74
2023/01/12 12:05:05;;;;;;;0.70;0.40;;;11.00;99.70;;;;;;5136910;28;20023;-74
2023/01/12 12:07:49;;;;;;;3.17;1.20;;;11.00;99.80;;;;;;5135764;28;20039;-74
2023/01/12 12:10:37;;;;;;;0.80;0.47;;;11.00;99.90;;;;;;5136978;28;20023;-74
2023/01/12 12:13:23;;;;;;;1.77;0.90;;;11.00;99.90;;;;;;5136916;28;20019;-74
2023/01/12 12:16:14;;;;;;;1.67;0.82;;;11.00;99.90;;;;;;5135737;28;20024;-74
2023/01/12 12:19:04;;;;;;;0.35;0.25;;;11.00;99.90;;;;;;5136662;28;20028;-74
2023/01/12 12:21:47;;;;;;;1.52;0.30;;;11.00;99.90;;;;;;5135587;28;20031;-74
2023/01/12 12:24:37;;;;;;;0.65;0.40;;;11.00;99.90;;;;;;5136718;28;20016;-75
2023/01/12 12:27:38;;;;;;;0.40;0.30;;;11.00;99.90;;;;;;5136518;28;20027;-74
2023/01/12 12:30:41;;;;;;;1.40;0.30;;;11.00;99.90;;;;;;5135442;28;20118;-74
2023/01/12 12:33:23;;;;;;;1.70;0.60;;;11.00;99.80;;;;;;5136435;28;20028;-74
2023/01/12 12:35:48;;;;;;;0.50;0.43;;;11.00;99.90;;;;;;5136436;28;20045;-74
2023/01/12 12:38:34;;;;;;;0.73;0.55;;;11.00;99.90;;;;;;5135232;28;20297;-74
2023/01/12 12:47:59;;;;;;;2.45;0.80;;;11.00;99.20;;;;;;5136120;28;20034;-74
2023/01/12 12:50:29;;;;;;;;;;;11.10;98.90;;;;;;5136479;28;20092;-75
2023/01/12 12:53:25;;;;;;;2.97;0.70;;;11.10;99.00;;;;;;5136139;28;19903;-74
2023/01/12 12:55:52;;;;;;;0.40;0.35;;;11.10;98.90;;;;;;5135985;28;20027;-74
2023/01/12 12:58:21;;;;;;;0.40;0.20;;;11.10;98.80;;;;;;5135918;28;20020;-74
2023/01/12 13:00:52;;;;;;;0.98;0.40;;;11.10;98.80;;;;;;5135846;28;20083;-74
2023/01/12 13:03:36;;;;;;;1.10;0.40;;;11.10;98.70;;;;;;5135864;28;20394;-74
2023/01/12 13:06:17;;;;;;;0.20;0.20;;;11.10;98.80;;;;;;5134695;28;20038;-74
2023/01/12 13:08:45;;;;;;;0.28;0.17;;;11.20;98.50;;;;;;5134791;28;20032;-74
2023/01/12 13:11:10;;;;;;;0.15;0.10;;;11.20;98.50;;;;;;5134593;28;20030;-74
2023/01/12 13:13:37;;;;;;;1.00;0.50;;;11.10;98.50;;;;;;5134595;28;20027;-74
2023/01/12 13:16:11;;;;;;;0.20;0.20;;;11.10;98.60;;;;;;5135573;28;20091;-74
2023/01/12 13:19:03;;;;;;;0.40;0.10;;;11.20;98.50;;;;;;5134517;28;20055;-74
2023/01/12 13:21:30;;;;;;;2.05;0.57;;;11.20;98.40;;;;;;5133957;28;20032;-74
2023/01/12 13:24:15;;;;;;;0.88;0.22;;;11.20;98.50;;;;;;5134395;28;20062;-74
2023/01/12 13:26:44;;;;;;;0.22;0.20;;;11.20;98.40;;;;;;5135236;28;20049;-74
2023/01/12 13:29:22;;;;;;;0.70;0.40;;;11.20;98.50;;;;;;5135307;28;20101;-74
2023/01/12 13:31:48;;;;;;;0.60;0.38;;;11.20;98.40;;;;;;5135231;28;20019;-74
2023/01/12 13:34:36;;;;;;;2.90;0.35;;;11.20;98.40;;;;;;5134198;28;20028;-74
2023/01/12 13:37:16;;;;;;;1.40;0.70;;;11.20;98.50;;;;;;5135215;28;20053;-74
2023/01/12 13:40:08;;;;;;;1.80;0.47;;;11.20;98.50;;;;;;5134412;28;20055;-74
2023/01/12 13:45:21;;;;;;;0.35;0.30;;;11.20;98.20;;;;;;5135229;28;20065;-74
2023/01/12 13:47:49;;;;;;;1.02;0.60;;;11.20;98.30;;;;;;5117009;28;20120;-74
2023/01/12 13:50:26;;;;;;;0.43;0.30;;;11.20;98.40;;;;;;5134870;28;20020;-74
2023/01/12 13:53:01;;;;;;;0.60;0.22;;;11.20;98.20;;;;;;5134833;28;20019;-74
2023/01/12 13:55:29;;;;;;;0.75;0.35;;;11.20;98.20;;;;;;5134831;28;20097;-74
2023/01/12 13:57:58;;;;;;;1.35;0.45;;;11.20;98.20;;;;;;5134709;28;20035;-74
2023/01/12 14:00:24;;;;;;;0.40;0.30;;;11.20;98.20;;;;;;5134700;28;20079;-74